ADDS METAR Data INFO
IDs: Format: Raw Decoded Include TAF

Data at: 0215 UTC 18 Jan 2018

KEHA 180155Z AUTO 22010KT 10SM CLR 00/M09 A3029 RMK AO2 T00001094
KEHA 180135Z AUTO 22010KT 10SM CLR 00/M09 A3029 RMK AO2 T10021095
KEHA 180115Z AUTO 22009KT 10SM CLR M01/M10 A3029 RMK AO2 T10121098
KEHA 180055Z AUTO 20009KT 10SM CLR M01/M10 A3029 RMK AO2 T10131100
KEHA 180035Z AUTO 19009KT 10SM CLR M01/M11 A3029 RMK AO2 T10151107
KEHA 180015Z AUTO 18008KT 5SM HZ CLR 01/M10 A3028 RMK AO2 T00061097
KEHA 172355Z AUTO 17009KT 10SM CLR 03/M09 A3028 RMK AO2 T00311090 10122 20031
KEHA 172335Z AUTO 17008KT 10SM CLR 07/M07 A3027 RMK AO2 T00701074
KEHA 172315Z AUTO 18007KT 7SM CLR 10/M06 A3027 RMK AO2 T00981065
KEHA 172255Z AUTO 18006KT 10SM CLR 11/M06 A3027 RMK AO2 T01141060
KEHA 172235Z AUTO 20007KT 10SM CLR 12/M06 A3027 RMK AO2 T01181060
KEHA 172215Z AUTO 20008KT 10SM CLR 12/M06 A3027 RMK AO2 T01201060
KEHA 172155Z AUTO 22006KT 10SM CLR 12/M06 A3026 RMK AO2 T01221060
KEHA 172135Z AUTO 21004KT 10SM CLR 12/M06 A3027 RMK AO2 T01211058
KEHA 172115Z AUTO 21006KT 10SM CLR 12/M06 A3027 RMK AO2 T01211056
KEHA 172055Z AUTO 22008KT 10SM CLR 12/M06 A3026 RMK AO2 T01201056
KEHA 172035Z AUTO 21012G16KT 10SM CLR 12/M05 A3026 RMK AO2 T01191055
KEHA 172015Z AUTO 21010G15KT 10SM CLR 11/M05 A3026 RMK AO2 T01141055
KEHA 171955Z AUTO 23009G14KT 10SM CLR 11/M06 A3027 RMK AO2 T01061059
KEHA 171935Z AUTO 22011KT 10SM CLR 11/M06 A3027 RMK AO2 T01051060
KEHA 171915Z AUTO 29009KT 210V340 10SM CLR 10/M06 A3027 RMK AO2 T00981060
KEHA 171855Z AUTO 23009KT 10SM CLR 09/M06 A3029 RMK AO2 T00901061
KEHA 171835Z AUTO 24008KT 10SM CLR 08/M07 A3030 RMK AO2 T00771066
KEHA 171815Z AUTO 22010KT 10SM CLR 07/M07 A3032 RMK AO2 T00681066
KEHA 171755Z AUTO 23010KT 10SM CLR 05/M07 A3032 RMK AO2 T00531070 10053 21136
KEHA 171735Z AUTO 25010KT 10SM CLR 04/M08 A3033 RMK AO2 T00421076
KEHA 171715Z AUTO 23010KT 10SM CLR 02/M08 A3033 RMK AO2 T00241080
KEHA 171655Z AUTO 23013KT 10SM CLR 01/M09 A3033 RMK AO2 T00071087
KEHA 171635Z AUTO 22012KT 10SM CLR M01/M10 A3034 RMK AO2 T10111097
KEHA 171615Z AUTO 23014KT 10SM CLR M03/M10 A3033 RMK AO2 T10261104
KEHA 171555Z AUTO 23013KT 10SM CLR M04/M11 A3033 RMK AO2 T10401108
KEHA 171535Z AUTO 22014KT 10SM CLR M05/M11 A3032 RMK AO2 T10521114
KEHA 171515Z AUTO 23012KT 10SM CLR M06/M12 A3032 RMK AO2 T10651120
KEHA 171455Z AUTO 22011KT 10SM CLR M09/M12 A3032 RMK AO2 T10881124
KEHA 171435Z AUTO 21006KT 10SM CLR M12/M14 A3032 RMK AO2 T11181141
KEHA 171415Z AUTO 20006KT 10SM CLR M13/M15 A3032 RMK AO2 T11311152
KEHA 171355Z AUTO 22006KT 10SM CLR M13/M15 A3032 RMK AO2 T11311153
KEHA 171335Z AUTO 22005KT 10SM CLR M12/M15 A3032 RMK AO2 T11221149
KEHA 171315Z AUTO 23006KT 10SM CLR M13/M15 A3031 RMK AO2 T11271149
KEHA 171255Z AUTO 22006KT 10SM CLR M12/M15 A3031 RMK AO2 T11231150
KEHA 171235Z AUTO 22007KT 10SM CLR M13/M15 A3031 RMK AO2 T11281155
KEHA 171215Z AUTO 00000KT 10SM CLR M12/M15 A3032 RMK AO2 T11221150
KEHA 171155Z AUTO 22007KT 10SM CLR M12/M15 A3032 RMK AO2 T11191149 11102 21125
KEHA 171135Z AUTO 21008KT 10SM CLR M11/M15 A3032 RMK AO2 T11151147
KEHA 171115Z AUTO 21008KT 10SM CLR M11/M15 A3032 RMK AO2 T11131150
KEHA 171055Z AUTO 21010KT 10SM CLR M11/M15 A3032 RMK AO2 T11131152
KEHA 171035Z AUTO 20012KT 10SM CLR M12/M16 A3032 RMK AO2 T11181159 PNO
KEHA 171015Z AUTO 19013KT 10SM CLR M11/M16 A3032 RMK AO2 T11151159
KEHA 170955Z AUTO 19013KT 10SM CLR M11/M16 A3033 RMK AO2 T11131159
KEHA 170935Z AUTO 19013KT 10SM CLR M12/M16 A3035 RMK AO2 T11171162
KEHA 170915Z AUTO 18011KT 10SM CLR M12/M17 A3036 RMK AO2 T11241166
KEHA 170855Z AUTO 18010KT 10SM CLR M12/M17 A3037 RMK AO2 T11201166
KEHA 170835Z AUTO 18012KT 10SM CLR M11/M17 A3037 RMK AO2 T11141166
KEHA 170815Z AUTO 20011KT 10SM CLR M10/M16 A3037 RMK AO2 T11051162
KEHA 170755Z AUTO 20013KT 10SM CLR M10/M16 A3038 RMK AO2 T11041163
KEHA 170735Z AUTO 20014KT 10SM CLR M10/M16 A3039 RMK AO2 T11051165
KEHA 170715Z AUTO 19013KT 10SM CLR M10/M17 A3040 RMK AO2 T11051171
KEHA 170655Z AUTO 19013KT 10SM CLR M11/M18 A3041 RMK AO2 T11061176
KEHA 170635Z AUTO 19012KT 10SM CLR M11/M18 A3042 RMK AO2 T11071176
KEHA 170615Z AUTO 19012KT 10SM CLR M11/M17 A3042 RMK AO2 T11061175
KEHA 170555Z AUTO 20012KT 10SM CLR M10/M17 A3044 RMK AO2 T11051175 11064 21128 410091162
KEHA 170535Z AUTO 20011KT 10SM CLR M10/M18 A3045 RMK AO2 T11021177
KEHA 170515Z AUTO 19011KT 10SM CLR M11/M18 A3045 RMK AO2 T11081176
KEHA 170455Z AUTO 19010KT 10SM CLR M11/M18 A3045 RMK AO2 T11151178
KEHA 170435Z AUTO 19008KT 10SM CLR M12/M18 A3046 RMK AO2 T11191180
KEHA 170415Z AUTO 18009KT 10SM CLR M12/M18 A3046 RMK AO2 T11211181
KEHA 170355Z AUTO 17009KT 10SM CLR M12/M18 A3047 RMK AO2 T11231182
KEHA 170335Z AUTO 17009KT 10SM CLR M12/M18 A3047 RMK AO2 T11231181
KEHA 170315Z AUTO 17008KT 10SM CLR M12/M18 A3047 RMK AO2 T11201181
KEHA 170255Z AUTO 17008KT 10SM CLR M12/M18 A3048 RMK AO2 T11171180
KEHA 170235Z AUTO 17009KT 10SM CLR M13/M18 A3048 RMK AO2 T11261185
KEHA 170215Z AUTO 16007KT 10SM CLR M11/M18 A3048 RMK AO2 T11111180
KEHA 170155Z AUTO 15008KT 10SM CLR M10/M18 A3048 RMK AO2 T11051176
KEHA 170135Z AUTO 14009KT 10SM CLR M09/M17 A3048 RMK AO2 T10921170
KEHA 170115Z AUTO 14008KT 10SM CLR M09/M17 A3049 RMK AO2 T10941171
KEHA 170055Z AUTO 14009KT 10SM CLR M09/M17 A3049 RMK AO2 T10921167
KEHA 170035Z AUTO 13008KT 10SM CLR M09/M17 A3049 RMK AO2 T10861167
KEHA 170015Z AUTO 12008KT 7SM CLR M07/M16 A3048 RMK AO2 T10751164
KEHA 162355Z AUTO 13007KT 10SM CLR M06/M16 A3049 RMK AO2 T10601159 11009 21068
KEHA 162335Z AUTO 14005KT 10SM CLR M04/M15 A3049 RMK AO2 T10381154
KEHA 162315Z AUTO 14004KT 10SM CLR M02/M15 A3050 RMK AO2 T10221149
KEHA 162255Z AUTO 00000KT 10SM CLR M02/M15 A3050 RMK AO2 T10171147
KEHA 162235Z AUTO 00000KT 10SM CLR M02/M15 A3051 RMK AO2 T10171147
KEHA 162215Z AUTO 00000KT 10SM CLR M02/M15 A3051 RMK AO2 T10181148
KEHA 162155Z AUTO 00000KT 10SM CLR M01/M15 A3051 RMK AO2 T10141147
KEHA 162135Z AUTO 00000KT 10SM CLR M01/M14 A3052 RMK AO2 T10111145
KEHA 162115Z AUTO 00000KT 10SM CLR M02/M15 A3052 RMK AO2 T10201148
KEHA 162055Z AUTO 00000KT 10SM CLR M02/M15 A3053 RMK AO2 T10201146
KEHA 162035Z AUTO 00000KT 10SM CLR M02/M15 A3054 RMK AO2 T10251150
KEHA 162015Z AUTO 00000KT 10SM CLR M03/M15 A3054 RMK AO2 T10281149
KEHA 161955Z AUTO 33003KT 10SM CLR M03/M15 A3055 RMK AO2 T10341152
KEHA 161935Z AUTO 30004KT 10SM CLR M04/M15 A3056 RMK AO2 T10391154
KEHA 161915Z AUTO 34003KT 10SM CLR M04/M16 A3057 RMK AO2 T10451156
KEHA 161855Z AUTO 36004KT 10SM CLR M05/M16 A3058 RMK AO2 T10491156
KEHA 161835Z AUTO 33004KT 10SM CLR M05/M16 A3060 RMK AO2 T10551158
KEHA 161815Z AUTO 32003KT 10SM CLR M06/M16 A3061 RMK AO2 T10651160
KEHA 161755Z AUTO 33006KT 10SM CLR M07/M16 A3062 RMK AO2 T10721156 11071 21162
KEHA 161735Z AUTO 34004KT 10SM CLR M08/M16 A3063 RMK AO2 T10781158
KEHA 161715Z AUTO 32003KT 10SM CLR M08/M16 A3065 RMK AO2 T10841160
KEHA 161655Z AUTO 01006KT 10SM CLR M09/M16 A3066 RMK AO2 T10911162
KEHA 161635Z AUTO 36008KT 10SM CLR M10/M16 A3065 RMK AO2 T10971163
KEHA 161615Z AUTO 02007KT 10SM CLR M10/M17 A3066 RMK AO2 T11051166
KEHA 161555Z AUTO 02004KT 10SM CLR M11/M17 A3065 RMK AO2 T11141169
KEHA 161535Z AUTO 01004KT 10SM CLR M12/M17 A3065 RMK AO2 T11211174
KEHA 161515Z AUTO 35004KT 10SM CLR M13/M18 A3065 RMK AO2 T11301180
KEHA 161455Z AUTO 32004KT 10SM CLR M14/M18 A3065 RMK AO2 T11391183
KEHA 161435Z AUTO 36004KT 10SM CLR M15/M19 A3065 RMK AO2 T11521191